createdAt,value
2023-02-06T00:00:09.742Z,12.68
2023-02-06T00:02:38.765Z,13.40
2023-02-06T00:05:08.429Z,12.90
2023-02-06T00:07:37.346Z,13.20
2023-02-06T00:10:06.923Z,14.20
2023-02-06T00:12:38.214Z,14.05
2023-02-06T00:15:07.685Z,12.65
2023-02-06T00:17:37.161Z,15.32
2023-02-06T00:20:07.538Z,14.93
2023-02-06T00:22:36.987Z,14.57
2023-02-06T00:25:07.037Z,15.55
2023-02-06T00:27:37.587Z,14.02
2023-02-06T00:30:07.556Z,15.73
2023-02-06T00:32:36.999Z,15.35
2023-02-06T00:35:06.878Z,14.45
2023-02-06T00:37:35.878Z,13.38
2023-02-06T00:40:05.061Z,14.63
2023-02-06T00:42:34.572Z,17.27
2023-02-06T00:45:05.344Z,12.95
2023-02-06T00:47:35.590Z,16.15
2023-02-06T00:50:05.412Z,14.55
2023-02-06T00:52:34.738Z,14.00
2023-02-06T00:55:03.693Z,14.23
2023-02-06T00:57:32.711Z,13.32
2023-02-06T01:00:01.616Z,17.00
2023-02-06T01:02:32.719Z,13.82
2023-02-06T01:05:02.109Z,16.55
2023-02-06T01:07:31.785Z,17.77
2023-02-06T01:10:01.081Z,13.07
2023-02-06T01:12:30.070Z,16.10
2023-02-06T01:14:59.533Z,13.98
2023-02-06T01:17:28.844Z,16.45
2023-02-06T01:19:59.573Z,13.18
2023-02-06T01:22:29.330Z,16.63
2023-02-06T01:24:58.692Z,13.15
2023-02-06T01:27:27.647Z,16.20
2023-02-06T01:29:56.619Z,19.05
2023-02-06T01:32:25.910Z,16.77
2023-02-06T01:34:54.877Z,14.77
2023-02-06T01:37:25.349Z,12.07
2023-02-06T01:39:54.353Z,14.95
2023-02-06T01:42:24.383Z,15.23
2023-02-06T01:45:26.611Z,14.00
2023-02-06T01:48:00.451Z,16.88
2023-02-06T01:53:00.654Z,16.63
2023-02-06T01:55:29.643Z,14.95
2023-02-06T01:58:01.696Z,15.07
2023-02-06T02:00:31.356Z,16.10
2023-02-06T02:03:00.425Z,18.92
2023-02-06T02:05:29.399Z,16.45
2023-02-06T02:08:07.578Z,15.52
2023-02-06T02:10:37.595Z,16.75
2023-02-06T02:13:08.809Z,16.13
2023-02-06T02:15:47.087Z,16.60
2023-02-06T02:18:29.796Z,13.20
2023-02-06T02:21:46.311Z,15.23
2023-02-06T02:24:24.670Z,15.63
2023-02-06T02:27:27.974Z,13.50
2023-02-06T02:30:46.420Z,14.32
2023-02-06T02:34:00.945Z,14.40
2023-02-06T02:36:37.314Z,16.95
2023-02-06T02:39:16.097Z,16.77
2023-02-06T02:41:52.004Z,17.20
2023-02-06T02:44:30.793Z,14.73
2023-02-06T02:47:04.931Z,17.73
2023-02-06T02:49:37.921Z,15.20
2023-02-06T02:52:08.529Z,14.13
2023-02-06T02:54:37.796Z,17.63
2023-02-06T02:57:10.927Z,17.52
2023-02-06T02:59:44.822Z,15.00
2023-02-06T03:04:51.467Z,17.65
2023-02-06T03:07:33.523Z,15.00
2023-02-06T03:10:11.642Z,15.63
2023-02-06T03:12:47.348Z,15.40
2023-02-06T03:15:26.315Z,15.18
2023-02-06T03:18:01.011Z,16.83
2023-02-06T03:20:33.159Z,21.38
2023-02-06T03:23:05.159Z,18.20
2023-02-06T03:25:37.403Z,17.40
2023-02-06T03:28:08.748Z,15.90
2023-02-06T03:30:40.075Z,16.60
2023-02-06T03:33:12.104Z,15.15
2023-02-06T03:35:41.725Z,15.68
2023-02-06T03:38:12.233Z,17.08
2023-02-06T03:40:45.199Z,16.35
2023-02-06T03:43:18.873Z,12.98
2023-02-06T03:48:24.702Z,14.00
2023-02-06T03:50:56.783Z,14.65
2023-02-06T03:53:28.013Z,16.60
2023-02-06T03:56:02.230Z,11.88
2023-02-06T03:58:32.129Z,14.07
2023-02-06T04:01:02.202Z,12.05
2023-02-06T04:03:32.014Z,13.95
2023-02-06T04:06:02.006Z,12.15
2023-02-06T04:08:32.509Z,12.00
2023-02-06T04:11:01.603Z,11.38
2023-02-06T04:13:30.681Z,15.40
2023-02-06T04:15:59.672Z,14.20
2023-02-06T04:18:28.685Z,13.02
2023-02-06T04:20:57.699Z,14.57
2023-02-06T04:23:26.951Z,13.88
2023-02-06T04:25:57.313Z,14.75
2023-02-06T04:28:26.249Z,15.70
2023-02-06T04:30:55.544Z,15.80
2023-02-06T04:33:24.544Z,15.70
2023-02-06T04:35:53.815Z,13.88
2023-02-06T04:38:22.858Z,14.38
2023-02-06T04:40:51.879Z,13.20
2023-02-06T04:43:22.430Z,14.32
2023-02-06T04:45:51.550Z,16.48
2023-02-06T04:48:20.860Z,16.92
2023-02-06T04:50:50.788Z,13.40
2023-02-06T04:53:20.395Z,15.68
2023-02-06T04:55:49.706Z,13.10
2023-02-06T04:58:18.935Z,13.18
2023-02-06T05:00:50.471Z,14.85
2023-02-06T05:03:19.411Z,15.80
2023-02-06T05:05:48.466Z,13.95
2023-02-06T05:08:18.100Z,13.00
2023-02-06T05:10:47.312Z,13.15
2023-02-06T05:13:16.635Z,13.63
2023-02-06T05:15:46.553Z,12.98
2023-02-06T05:18:17.211Z,15.45
2023-02-06T05:20:46.694Z,16.02
2023-02-06T05:23:15.923Z,15.25
2023-02-06T05:25:45.378Z,14.25
2023-02-06T05:28:15.106Z,14.70
2023-02-06T05:30:44.901Z,12.98
2023-02-06T05:33:13.835Z,12.93
2023-02-06T05:35:44.194Z,17.52
2023-02-06T05:38:13.326Z,18.02
2023-02-06T05:40:42.453Z,14.68
2023-02-06T05:43:11.662Z,18.58
2023-02-06T05:45:41.111Z,14.80
2023-02-06T05:48:10.286Z,16.55
2023-02-06T05:50:39.561Z,13.98
2023-02-06T05:53:18.920Z,15.35
2023-02-06T05:55:48.383Z,13.68
2023-02-06T05:58:18.873Z,16.13
2023-02-06T06:00:47.820Z,17.40
2023-02-06T06:03:16.718Z,16.17
2023-02-06T06:05:46.483Z,22.02
2023-02-06T06:08:15.969Z,19.85
2023-02-06T06:10:46.337Z,14.60
2023-02-06T06:13:15.637Z,15.48
2023-02-06T06:15:45.184Z,17.58
2023-02-06T06:18:14.543Z,13.60
2023-02-06T06:20:43.639Z,16.17
2023-02-06T06:23:12.959Z,19.63
2023-02-06T06:25:42.158Z,15.30
2023-02-06T06:28:13.362Z,16.65
2023-02-06T06:30:42.621Z,13.63
2023-02-06T06:33:12.091Z,15.90
2023-02-06T06:35:42.337Z,14.98
2023-02-06T06:38:12.506Z,17.50
2023-02-06T06:40:45.563Z,19.52
2023-02-06T06:43:16.087Z,22.27
2023-02-06T06:45:45.361Z,17.73
2023-02-06T06:48:14.372Z,20.23
2023-02-06T06:50:43.881Z,21.17
2023-02-06T06:53:12.870Z,14.90
2023-02-06T06:55:42.197Z,20.02
2023-02-06T06:58:17.875Z,20.00
2023-02-06T07:00:48.314Z,13.23
2023-02-06T07:03:17.341Z,17.65
2023-02-06T07:05:47.440Z,19.20
2023-02-06T07:08:16.515Z,13.52
2023-02-06T07:10:45.824Z,15.15
2023-02-06T07:13:15.582Z,15.30
2023-02-06T07:15:45.012Z,13.90
2023-02-06T07:18:15.448Z,15.48
2023-02-06T07:20:45.005Z,14.13
2023-02-06T07:23:14.419Z,17.30
2023-02-06T07:25:44.241Z,16.27
2023-02-06T07:28:13.363Z,15.23
2023-02-06T07:30:42.923Z,16.40
2023-02-06T07:33:12.168Z,16.20
2023-02-06T07:35:43.978Z,14.57
2023-02-06T07:38:13.319Z,12.05
2023-02-06T07:40:45.331Z,15.23
2023-02-06T07:43:15.776Z,14.48
2023-02-06T07:45:45.944Z,12.93
2023-02-06T07:48:15.183Z,12.88
2023-02-06T07:50:46.737Z,11.35
2023-02-06T07:53:15.930Z,14.73
2023-02-06T07:55:45.673Z,12.68
2023-02-06T07:58:14.780Z,14.52
2023-02-06T08:00:45.860Z,12.50
2023-02-06T08:03:15.579Z,15.43
2023-02-06T08:05:46.051Z,12.23
2023-02-06T08:08:15.238Z,14.23
2023-02-06T08:10:44.348Z,13.52
2023-02-06T08:13:14.648Z,18.38
2023-02-06T08:15:45.082Z,11.43
2023-02-06T08:18:14.364Z,14.35
2023-02-06T08:20:43.661Z,11.88
2023-02-06T08:23:14.237Z,9.80
2023-02-06T08:25:44.046Z,14.45
2023-02-06T08:28:17.186Z,10.40
2023-02-06T08:30:47.208Z,11.45
2023-02-06T08:33:16.827Z,11.77
2023-02-06T08:35:45.959Z,13.52
2023-02-06T08:38:16.760Z,12.80
2023-02-06T08:40:46.052Z,11.48
2023-02-06T08:43:15.563Z,13.10
2023-02-06T08:45:48.891Z,14.60
2023-02-06T08:48:18.465Z,12.68
2023-02-06T08:50:50.243Z,12.23
2023-02-06T08:53:20.904Z,13.75
2023-02-06T08:55:49.992Z,16.13
2023-02-06T08:58:19.994Z,10.65
2023-02-06T09:00:48.927Z,11.50
2023-02-06T09:03:18.503Z,9.95
2023-02-06T09:05:47.494Z,12.40
2023-02-06T09:08:16.597Z,12.05
2023-02-06T09:10:47.376Z,11.93
2023-02-06T09:13:16.907Z,12.00
2023-02-06T09:15:52.923Z,11.50
2023-02-06T09:18:22.284Z,12.43
2023-02-06T09:20:51.440Z,11.63
2023-02-06T09:23:21.112Z,9.95
2023-02-06T09:25:52.011Z,14.70
2023-02-06T09:28:21.265Z,12.77
2023-02-06T09:30:50.671Z,12.38
2023-02-06T09:33:48.854Z,12.00
2023-02-06T09:36:19.604Z,10.48
2023-02-06T09:38:50.329Z,13.57
2023-02-06T09:41:29.031Z,13.50
2023-02-06T09:44:04.285Z,17.30
2023-02-06T09:46:37.137Z,14.05
2023-02-06T09:49:13.847Z,12.80
2023-02-06T09:51:57.631Z,11.02
2023-02-06T09:54:37.442Z,11.48
2023-02-06T09:57:12.554Z,10.98
2023-02-06T09:59:47.800Z,10.98
2023-02-06T10:02:36.056Z,10.65
2023-02-06T10:05:13.611Z,13.80
2023-02-06T10:08:01.729Z,14.35
2023-02-06T10:10:38.492Z,9.35
2023-02-06T10:13:17.401Z,10.18
2023-02-06T10:15:49.907Z,10.85
2023-02-06T10:18:28.960Z,10.00
2023-02-06T10:21:03.688Z,9.98
2023-02-06T10:23:40.757Z,10.90
2023-02-06T10:26:17.340Z,10.50
2023-02-06T10:28:51.099Z,10.55
2023-02-06T10:31:45.116Z,11.30
2023-02-06T10:34:32.149Z,11.20
2023-02-06T10:37:15.943Z,11.75
2023-02-06T10:40:09.681Z,12.05
2023-02-06T10:42:48.033Z,8.80
2023-02-06T10:45:33.060Z,8.25
2023-02-06T10:48:10.473Z,8.98
2023-02-06T10:50:45.620Z,9.07
2023-02-06T10:53:24.542Z,11.35
2023-02-06T10:55:56.686Z,10.73
2023-02-06T10:58:28.542Z,12.20
2023-02-06T11:01:00.589Z,12.23
2023-02-06T11:03:32.398Z,13.30
2023-02-06T11:06:03.950Z,11.95
2023-02-06T11:08:38.167Z,13.13
2023-02-06T11:11:20.511Z,8.85
2023-02-06T11:13:53.898Z,8.73
2023-02-06T11:16:27.684Z,11.32
2023-02-06T11:21:51.064Z,15.10
2023-02-06T11:24:24.558Z,13.48
2023-02-06T11:26:57.459Z,21.23
2023-02-06T11:29:31.830Z,9.37
2023-02-06T11:32:04.550Z,15.07
2023-02-06T11:34:35.821Z,11.60
2023-02-06T11:37:07.106Z,7.47
2023-02-06T11:39:38.000Z,8.02
2023-02-06T11:42:21.460Z,7.03
2023-02-06T11:44:52.237Z,7.00
2023-02-06T11:47:31.398Z,6.68
2023-02-06T11:50:23.591Z,9.40
2023-02-06T11:52:58.792Z,8.27
2023-02-06T11:55:30.080Z,8.18
2023-02-06T11:58:05.787Z,8.27
2023-02-06T12:00:38.247Z,7.90
2023-02-06T12:03:43.734Z,6.68
2023-02-06T12:06:17.226Z,8.10
2023-02-06T12:08:50.036Z,8.50
2023-02-06T12:11:26.977Z,7.50
2023-02-06T12:13:59.499Z,8.55
2023-02-06T12:16:30.286Z,8.80
2023-02-06T12:19:04.447Z,7.43
2023-02-06T12:21:44.813Z,6.47
2023-02-06T12:24:28.191Z,7.90
2023-02-06T12:27:01.853Z,7.47
2023-02-06T12:29:36.826Z,8.25
2023-02-06T12:32:15.157Z,8.38
2023-02-06T12:34:56.189Z,6.57
2023-02-06T12:37:37.914Z,9.05
2023-02-06T12:40:15.017Z,5.45
2023-02-06T12:42:48.651Z,8.82
2023-02-06T12:45:32.537Z,9.48
2023-02-06T12:48:10.084Z,8.15
2023-02-06T12:50:56.543Z,7.47
2023-02-06T12:53:31.721Z,8.88
2023-02-06T12:56:05.508Z,8.60
2023-02-06T13:01:34.755Z,10.45
2023-02-06T13:04:06.797Z,9.20
2023-02-06T13:06:45.784Z,7.82
2023-02-06T13:09:22.681Z,10.10
2023-02-06T13:11:52.523Z,8.50
2023-02-06T13:14:25.233Z,11.10
2023-02-06T13:16:58.309Z,8.73
2023-02-06T13:19:31.381Z,8.63
2023-02-06T13:22:24.532Z,9.00
2023-02-06T13:24:53.742Z,15.55
2023-02-06T13:27:25.928Z,9.23
2023-02-06T13:29:55.693Z,8.20
2023-02-06T13:32:43.274Z,6.70
2023-02-06T13:35:22.173Z,6.07
2023-02-06T13:38:12.527Z,6.63
2023-02-06T13:40:42.592Z,6.45
2023-02-06T13:43:18.732Z,9.85
2023-02-06T13:45:54.567Z,6.95
2023-02-06T13:48:52.281Z,7.93
2023-02-06T13:51:50.523Z,8.55
2023-02-06T13:54:55.545Z,8.23
2023-02-06T13:57:36.047Z,7.72
2023-02-06T14:00:13.438Z,9.20
2023-02-06T14:02:46.714Z,9.57
2023-02-06T14:05:20.703Z,11.80
2023-02-06T14:08:09.027Z,25.52
2023-02-06T14:11:00.174Z,12.50
2023-02-06T14:13:47.159Z,14.30
2023-02-06T14:16:33.661Z,12.93
2023-02-06T14:19:06.060Z,9.27
2023-02-06T14:21:46.908Z,9.82
2023-02-06T14:24:38.357Z,9.35
2023-02-06T14:27:23.804Z,7.93
2023-02-06T14:29:58.962Z,12.40
2023-02-06T14:33:15.385Z,13.07
2023-02-06T14:36:05.361Z,12.13
2023-02-06T14:39:11.780Z,12.60
2023-02-06T14:41:41.345Z,10.25
2023-02-06T14:44:16.964Z,8.75
2023-02-06T14:46:47.110Z,10.73
2023-02-06T14:49:20.071Z,7.13
2023-02-06T14:51:52.458Z,8.68
2023-02-06T14:54:34.215Z,7.78
2023-02-06T14:57:06.002Z,9.80
2023-02-06T14:59:36.943Z,10.45
2023-02-06T15:02:15.313Z,10.23
2023-02-06T15:04:49.048Z,13.95
2023-02-06T15:07:25.128Z,10.60
2023-02-06T15:10:00.736Z,11.10
2023-02-06T15:12:32.284Z,15.10
2023-02-06T15:15:16.328Z,8.50
2023-02-06T15:20:28.985Z,9.48
2023-02-06T15:23:16.632Z,9.95
2023-02-06T15:26:05.252Z,6.65
2023-02-06T15:28:38.127Z,9.95
2023-02-06T15:31:18.733Z,9.47
2023-02-06T15:33:51.478Z,11.63
2023-02-06T15:36:30.079Z,8.35
2023-02-06T15:39:00.573Z,8.73
2023-02-06T15:41:31.685Z,11.10
2023-02-06T15:44:04.278Z,8.45
2023-02-06T15:46:35.245Z,8.43
2023-02-06T15:49:04.550Z,11.77
2023-02-06T15:51:42.607Z,11.80
2023-02-06T15:54:27.338Z,10.27
2023-02-06T15:57:02.719Z,8.60
2023-02-06T15:59:35.666Z,13.45
2023-02-06T16:02:06.911Z,10.27
2023-02-06T16:04:39.714Z,12.00
2023-02-06T16:07:17.662Z,6.82
2023-02-06T16:10:10.821Z,9.27
2023-02-06T16:12:42.331Z,8.18
2023-02-06T16:15:27.591Z,11.85
2023-02-06T16:18:17.093Z,13.18
2023-02-06T16:20:47.736Z,10.00
2023-02-06T16:23:23.400Z,10.13
2023-02-06T16:26:03.299Z,12.35
2023-02-06T16:28:32.598Z,12.57
2023-02-06T16:31:04.743Z,12.60
2023-02-06T16:33:39.237Z,11.02
2023-02-06T16:36:10.582Z,11.38
2023-02-06T16:38:40.095Z,10.18
2023-02-06T16:41:25.948Z,13.25
2023-02-06T16:43:55.973Z,14.13
2023-02-06T16:46:26.123Z,13.40
2023-02-06T16:48:57.611Z,10.35
2023-02-06T16:51:32.131Z,9.20
2023-02-06T16:54:02.704Z,10.02
2023-02-06T16:56:33.156Z,9.88
2023-02-06T16:59:02.980Z,11.50
2023-02-06T17:01:33.038Z,11.25
2023-02-06T17:04:04.466Z,12.93
2023-02-06T17:07:20.108Z,11.32
2023-02-06T17:10:05.462Z,14.02
2023-02-06T17:12:36.369Z,9.90
2023-02-06T17:15:10.093Z,11.68
2023-02-06T17:17:41.590Z,12.27
2023-02-06T17:20:27.587Z,9.68
2023-02-06T17:22:59.745Z,11.35
2023-02-06T17:25:30.264Z,10.18
2023-02-06T17:28:02.579Z,10.40
2023-02-06T17:30:32.796Z,11.38
2023-02-06T17:33:07.284Z,10.02
2023-02-06T17:35:41.219Z,7.95
2023-02-06T17:38:12.062Z,11.18
2023-02-06T17:40:43.713Z,7.93
2023-02-06T17:43:13.033Z,12.57
2023-02-06T17:45:42.919Z,10.35
2023-02-06T17:48:26.306Z,11.10
2023-02-06T17:50:58.960Z,9.80
2023-02-06T17:53:28.176Z,15.82
2023-02-06T17:55:57.612Z,11.57
2023-02-06T17:58:28.034Z,9.25
2023-02-06T18:00:57.081Z,10.77
2023-02-06T18:03:29.614Z,11.23
2023-02-06T18:06:02.306Z,8.93
2023-02-06T18:08:32.654Z,9.25
2023-02-06T18:11:03.549Z,9.88
2023-02-06T18:13:35.064Z,8.90
2023-02-06T18:16:04.412Z,9.43
2023-02-06T18:18:33.604Z,8.75
2023-02-06T18:21:04.309Z,11.23
2023-02-06T18:23:34.198Z,11.10
2023-02-06T18:26:04.478Z,9.55
2023-02-06T18:28:36.234Z,11.10
2023-02-06T18:31:07.529Z,11.20
2023-02-06T18:33:37.703Z,10.27
2023-02-06T18:36:09.783Z,11.30
2023-02-06T18:38:40.632Z,10.55
2023-02-06T18:41:30.990Z,9.45
2023-02-06T18:44:01.088Z,9.50
2023-02-06T18:46:33.321Z,10.65
2023-02-06T18:49:03.390Z,11.07
2023-02-06T18:51:34.515Z,10.13
2023-02-06T18:54:04.860Z,12.77
2023-02-06T18:56:36.170Z,9.25
2023-02-06T18:59:40.818Z,14.30
2023-02-06T19:02:16.677Z,12.48
2023-02-06T19:04:47.215Z,11.80
2023-02-06T19:07:18.885Z,12.88
2023-02-06T19:09:48.440Z,9.50
2023-02-06T19:12:17.880Z,10.02
2023-02-06T19:14:47.192Z,10.88
2023-02-06T19:17:16.933Z,11.05
2023-02-06T19:19:46.626Z,10.75
2023-02-06T19:22:17.687Z,17.05
2023-02-06T19:24:47.081Z,10.45
2023-02-06T19:27:16.099Z,10.40
2023-02-06T19:29:45.540Z,12.45
2023-02-06T19:32:15.169Z,11.63
2023-02-06T19:34:45.355Z,11.50
2023-02-06T19:37:14.819Z,10.25
2023-02-06T19:39:46.059Z,12.38
2023-02-06T19:42:17.254Z,11.68
2023-02-06T19:44:46.840Z,12.75
2023-02-06T19:47:15.953Z,13.45
2023-02-06T19:49:45.364Z,14.77
2023-02-06T19:52:15.000Z,9.50
2023-02-06T19:54:48.020Z,9.85
2023-02-06T19:57:19.427Z,10.80
2023-02-06T19:59:49.451Z,11.77
2023-02-06T20:02:19.779Z,10.43
2023-02-06T20:04:49.349Z,12.73
2023-02-06T20:07:19.224Z,10.05
2023-02-06T20:09:51.244Z,12.35
2023-02-06T20:12:20.744Z,12.25
2023-02-06T20:14:49.946Z,10.35
2023-02-06T20:17:19.543Z,12.13
2023-02-06T20:19:48.979Z,13.32
2023-02-06T20:22:17.949Z,12.45
2023-02-06T20:24:47.415Z,11.48
2023-02-06T20:27:18.060Z,11.50
2023-02-06T20:29:48.176Z,11.95
2023-02-06T20:32:19.535Z,11.13
2023-02-06T20:34:49.424Z,14.35
2023-02-06T20:37:19.102Z,11.82
2023-02-06T20:39:49.238Z,13.43
2023-02-06T20:42:22.698Z,12.35
2023-02-06T20:44:52.960Z,11.07
2023-02-06T20:47:22.619Z,10.88
2023-02-06T20:49:52.495Z,11.57
2023-02-06T20:52:21.898Z,11.65
2023-02-06T20:54:51.059Z,12.23
2023-02-06T20:57:23.150Z,12.32
2023-02-06T20:59:52.772Z,11.32
2023-02-06T21:02:22.460Z,12.90
2023-02-06T21:04:52.456Z,10.10
2023-02-06T21:07:22.122Z,14.98
2023-02-06T21:09:52.447Z,13.05
2023-02-06T21:12:22.858Z,12.93
2023-02-06T21:14:52.541Z,13.32
2023-02-06T21:17:21.786Z,13.43
2023-02-06T21:19:51.239Z,12.15
2023-02-06T21:22:20.524Z,10.85
2023-02-06T21:24:49.991Z,11.68
2023-02-06T21:27:19.604Z,12.57
2023-02-06T21:29:50.299Z,14.15
2023-02-06T21:32:19.878Z,11.25
2023-02-06T21:34:49.250Z,11.10
2023-02-06T21:37:18.607Z,10.27
2023-02-06T21:39:47.971Z,13.82
2023-02-06T21:42:20.536Z,15.20
2023-02-06T21:44:50.972Z,15.10
2023-02-06T21:47:20.141Z,17.45
2023-02-06T21:49:49.558Z,15.10
2023-02-06T21:52:18.962Z,17.88
2023-02-06T21:54:48.085Z,13.88
2023-02-06T21:57:17.295Z,13.32
2023-02-06T21:59:46.786Z,13.48
2023-02-06T22:02:17.429Z,16.23
2023-02-06T22:04:47.123Z,15.65
2023-02-06T22:07:16.126Z,13.77
2023-02-06T22:09:45.256Z,12.57
2023-02-06T22:12:14.460Z,15.88
2023-02-06T22:14:43.719Z,14.07
2023-02-06T22:17:12.899Z,13.40
2023-02-06T22:19:43.787Z,12.48
2023-02-06T22:22:13.669Z,13.68
2023-02-06T22:24:44.291Z,16.40
2023-02-06T22:27:13.720Z,16.23
2023-02-06T22:29:43.124Z,13.93
2023-02-06T22:32:12.334Z,16.02
2023-02-06T22:34:41.585Z,16.63
2023-02-06T22:37:12.262Z,12.63
2023-02-06T22:39:41.403Z,14.43
2023-02-06T22:42:10.391Z,15.30
